sensor_id;sensor_type;location;lat;lon;timestamp;temperature;humidity
14079;DHT22;7115;50.150;8.568;2023-05-16T00:01:59;14.80;99.90
14079;DHT22;7115;50.150;8.568;2023-05-16T00:04:28;14.70;99.90
14079;DHT22;7115;50.150;8.568;2023-05-16T00:06:55;14.70;99.90
14079;DHT22;7115;50.150;8.568;2023-05-16T00:09:22;14.70;99.90
14079;DHT22;7115;50.150;8.568;2023-05-16T00:11:49;14.70;99.90
14079;DHT22;7115;50.150;8.568;2023-05-16T00:14:16;14.70;99.90
14079;DHT22;7115;50.150;8.568;2023-05-16T00:16:44;14.70;99.90
14079;DHT22;7115;50.150;8.568;2023-05-16T00:19:12;14.70;99.90
14079;DHT22;7115;50.150;8.568;2023-05-16T00:21:41;14.70;99.90
14079;DHT22;7115;50.150;8.568;2023-05-16T00:24:08;14.70;99.90
14079;DHT22;7115;50.150;8.568;2023-05-16T00:26:35;14.70;99.90
14079;DHT22;7115;50.150;8.568;2023-05-16T00:29:02;14.70;99.90
14079;DHT22;7115;50.150;8.568;2023-05-16T00:31:28;14.70;99.90
14079;DHT22;7115;50.150;8.568;2023-05-16T00:33:55;14.70;99.90
14079;DHT22;7115;50.150;8.568;2023-05-16T00:36:22;14.70;99.90
14079;DHT22;7115;50.150;8.568;2023-05-16T00:38:51;14.60;99.90
14079;DHT22;7115;50.150;8.568;2023-05-16T00:41:18;14.60;99.90
14079;DHT22;7115;50.150;8.568;2023-05-16T00:43:44;14.60;99.90
14079;DHT22;7115;50.150;8.568;2023-05-16T00:46:11;14.60;99.90
14079;DHT22;7115;50.150;8.568;2023-05-16T00:48:38;14.50;99.90
14079;DHT22;7115;50.150;8.568;2023-05-16T00:51:05;14.50;99.90
14079;DHT22;7115;50.150;8.568;2023-05-16T00:53:35;14.40;99.90
14079;DHT22;7115;50.150;8.568;2023-05-16T00:56:04;14.40;99.90
14079;DHT22;7115;50.150;8.568;2023-05-16T00:58:32;14.40;99.90
14079;DHT22;7115;50.150;8.568;2023-05-16T01:01:00;14.40;99.90
14079;DHT22;7115;50.150;8.568;2023-05-16T01:03:29;14.50;99.90
14079;DHT22;7115;50.150;8.568;2023-05-16T01:05:57;14.40;99.90
14079;DHT22;7115;50.150;8.568;2023-05-16T01:08:24;14.40;99.90
14079;DHT22;7115;50.150;8.568;2023-05-16T01:10:58;14.40;99.90
14079;DHT22;7115;50.150;8.568;2023-05-16T01:13:32;14.40;99.90
14079;DHT22;7115;50.150;8.568;2023-05-16T01:16:09;14.40;99.90
14079;DHT22;7115;50.150;8.568;2023-05-16T01:18:41;14.30;99.90
14079;DHT22;7115;50.150;8.568;2023-05-16T01:21:18;14.40;99.90
14079;DHT22;7115;50.150;8.568;2023-05-16T01:23:51;14.30;99.90
14079;DHT22;7115;50.150;8.568;2023-05-16T01:26:21;14.30;99.90
14079;DHT22;7115;50.150;8.568;2023-05-16T01:28:50;14.40;99.90
14079;DHT22;7115;50.150;8.568;2023-05-16T01:31:17;14.40;99.90
14079;DHT22;7115;50.150;8.568;2023-05-16T01:33:45;14.40;99.90
14079;DHT22;7115;50.150;8.568;2023-05-16T01:36:19;14.50;99.90
14079;DHT22;7115;50.150;8.568;2023-05-16T01:38:58;14.50;99.90
14079;DHT22;7115;50.150;8.568;2023-05-16T01:41:34;14.50;99.90
14079;DHT22;7115;50.150;8.568;2023-05-16T01:44:09;14.60;99.90
14079;DHT22;7115;50.150;8.568;2023-05-16T01:46:39;14.60;99.90
14079;DHT22;7115;50.150;8.568;2023-05-16T01:49:14;14.60;99.90
14079;DHT22;7115;50.150;8.568;2023-05-16T01:51:46;14.60;99.90
14079;DHT22;7115;50.150;8.568;2023-05-16T01:54:17;14.60;99.90
14079;DHT22;7115;50.150;8.568;2023-05-16T01:56:51;14.60;99.90
14079;DHT22;7115;50.150;8.568;2023-05-16T01:59:19;14.60;99.90
14079;DHT22;7115;50.150;8.568;2023-05-16T02:01:47;14.60;99.90
14079;DHT22;7115;50.150;8.568;2023-05-16T02:04:14;14.50;99.90
14079;DHT22;7115;50.150;8.568;2023-05-16T02:06:42;14.60;99.90
14079;DHT22;7115;50.150;8.568;2023-05-16T02:09:09;14.50;99.90
14079;DHT22;7115;50.150;8.568;2023-05-16T02:11:36;14.50;99.90
14079;DHT22;7115;50.150;8.568;2023-05-16T02:14:04;14.50;99.90
14079;DHT22;7115;50.150;8.568;2023-05-16T02:16:32;14.50;99.90
14079;DHT22;7115;50.150;8.568;2023-05-16T02:18:59;14.50;99.90
14079;DHT22;7115;50.150;8.568;2023-05-16T02:21:27;14.40;99.90
14079;DHT22;7115;50.150;8.568;2023-05-16T02:23:54;14.40;99.90
14079;DHT22;7115;50.150;8.568;2023-05-16T02:26:21;14.40;99.90
14079;DHT22;7115;50.150;8.568;2023-05-16T02:28:48;14.40;99.90
14079;DHT22;7115;50.150;8.568;2023-05-16T02:31:26;14.40;99.90
14079;DHT22;7115;50.150;8.568;2023-05-16T02:33:53;14.30;99.90
14079;DHT22;7115;50.150;8.568;2023-05-16T02:36:20;14.30;99.90
14079;DHT22;7115;50.150;8.568;2023-05-16T02:38:47;14.30;99.90
14079;DHT22;7115;50.150;8.568;2023-05-16T02:41:14;14.20;99.90
14079;DHT22;7115;50.150;8.568;2023-05-16T02:43:40;14.20;99.90
14079;DHT22;7115;50.150;8.568;2023-05-16T02:46:22;14.10;99.90
14079;DHT22;7115;50.150;8.568;2023-05-16T02:48:51;14.10;99.90
14079;DHT22;7115;50.150;8.568;2023-05-16T02:51:19;14.10;99.90
14079;DHT22;7115;50.150;8.568;2023-05-16T02:53:46;14.10;99.90
14079;DHT22;7115;50.150;8.568;2023-05-16T02:56:13;14.00;99.90
14079;DHT22;7115;50.150;8.568;2023-05-16T02:58:41;14.00;99.90
14079;DHT22;7115;50.150;8.568;2023-05-16T03:01:08;14.00;99.90
14079;DHT22;7115;50.150;8.568;2023-05-16T03:03:35;13.80;99.90
14079;DHT22;7115;50.150;8.568;2023-05-16T03:06:04;13.80;99.90
14079;DHT22;7115;50.150;8.568;2023-05-16T03:08:31;13.80;99.90
14079;DHT22;7115;50.150;8.568;2023-05-16T03:10:58;13.80;99.90
14079;DHT22;7115;50.150;8.568;2023-05-16T03:13:25;13.80;99.90
14079;DHT22;7115;50.150;8.568;2023-05-16T03:15:52;13.90;99.90
14079;DHT22;7115;50.150;8.568;2023-05-16T03:18:19;13.80;99.90
14079;DHT22;7115;50.150;8.568;2023-05-16T03:20:46;13.80;99.90
14079;DHT22;7115;50.150;8.568;2023-05-16T03:23:15;13.80;99.90
14079;DHT22;7115;50.150;8.568;2023-05-16T03:25:42;13.80;99.90
14079;DHT22;7115;50.150;8.568;2023-05-16T03:28:09;13.80;99.90
14079;DHT22;7115;50.150;8.568;2023-05-16T03:30:36;13.80;99.90
14079;DHT22;7115;50.150;8.568;2023-05-16T03:33:03;13.80;99.90
14079;DHT22;7115;50.150;8.568;2023-05-16T03:35:30;13.80;99.90
14079;DHT22;7115;50.150;8.568;2023-05-16T03:37:57;13.80;99.90
14079;DHT22;7115;50.150;8.568;2023-05-16T03:40:25;13.80;99.90
14079;DHT22;7115;50.150;8.568;2023-05-16T03:42:52;13.80;99.90
14079;DHT22;7115;50.150;8.568;2023-05-16T03:45:19;13.80;99.90
14079;DHT22;7115;50.150;8.568;2023-05-16T03:47:48;13.70;99.90
14079;DHT22;7115;50.150;8.568;2023-05-16T03:50:14;13.80;99.90
14079;DHT22;7115;50.150;8.568;2023-05-16T03:52:42;13.70;99.90
14079;DHT22;7115;50.150;8.568;2023-05-16T03:55:09;13.80;99.90
14079;DHT22;7115;50.150;8.568;2023-05-16T03:57:37;13.80;99.90
14079;DHT22;7115;50.150;8.568;2023-05-16T04:00:05;13.80;99.90
14079;DHT22;7115;50.150;8.568;2023-05-16T04:02:33;13.80;99.90
14079;DHT22;7115;50.150;8.568;2023-05-16T04:05:00;13.90;99.90
14079;DHT22;7115;50.150;8.568;2023-05-16T04:07:27;14.00;99.90
14079;DHT22;7115;50.150;8.568;2023-05-16T04:09:54;14.00;99.90
14079;DHT22;7115;50.150;8.568;2023-05-16T04:12:22;14.00;99.90
14079;DHT22;7115;50.150;8.568;2023-05-16T04:14:50;14.00;99.90
14079;DHT22;7115;50.150;8.568;2023-05-16T04:17:17;14.10;99.90
14079;DHT22;7115;50.150;8.568;2023-05-16T04:19:44;14.10;99.90
14079;DHT22;7115;50.150;8.568;2023-05-16T04:22:10;14.10;99.90
14079;DHT22;7115;50.150;8.568;2023-05-16T04:24:37;14.10;99.90
14079;DHT22;7115;50.150;8.568;2023-05-16T04:27:05;14.20;99.90
14079;DHT22;7115;50.150;8.568;2023-05-16T04:29:35;14.20;99.90
14079;DHT22;7115;50.150;8.568;2023-05-16T04:32:05;14.20;99.90
14079;DHT22;7115;50.150;8.568;2023-05-16T04:34:33;14.20;99.90
14079;DHT22;7115;50.150;8.568;2023-05-16T04:37:06;14.30;99.90
14079;DHT22;7115;50.150;8.568;2023-05-16T04:39:34;14.30;99.90
14079;DHT22;7115;50.150;8.568;2023-05-16T04:42:01;14.30;99.90
14079;DHT22;7115;50.150;8.568;2023-05-16T04:44:28;14.40;99.90
14079;DHT22;7115;50.150;8.568;2023-05-16T04:46:55;14.40;99.90
14079;DHT22;7115;50.150;8.568;2023-05-16T04:49:24;14.40;99.90
14079;DHT22;7115;50.150;8.568;2023-05-16T04:51:51;14.40;99.90
14079;DHT22;7115;50.150;8.568;2023-05-16T04:54:18;14.50;99.90
14079;DHT22;7115;50.150;8.568;2023-05-16T04:56:44;14.50;99.90
14079;DHT22;7115;50.150;8.568;2023-05-16T04:59:11;14.50;99.90
14079;DHT22;7115;50.150;8.568;2023-05-16T05:01:38;14.60;99.90
14079;DHT22;7115;50.150;8.568;2023-05-16T05:04:05;14.60;99.90
14079;DHT22;7115;50.150;8.568;2023-05-16T05:06:34;14.60;99.90
14079;DHT22;7115;50.150;8.568;2023-05-16T05:09:00;14.60;99.90
14079;DHT22;7115;50.150;8.568;2023-05-16T05:11:27;14.60;99.90
14079;DHT22;7115;50.150;8.568;2023-05-16T05:13:54;14.60;99.90
14079;DHT22;7115;50.150;8.568;2023-05-16T05:16:21;14.60;99.90
14079;DHT22;7115;50.150;8.568;2023-05-16T05:18:48;14.60;99.90
14079;DHT22;7115;50.150;8.568;2023-05-16T05:21:15;14.50;99.90
14079;DHT22;7115;50.150;8.568;2023-05-16T05:23:43;14.50;99.90
14079;DHT22;7115;50.150;8.568;2023-05-16T05:26:10;14.50;99.90
14079;DHT22;7115;50.150;8.568;2023-05-16T05:28:37;14.30;99.90
14079;DHT22;7115;50.150;8.568;2023-05-16T05:31:05;14.40;99.90
14079;DHT22;7115;50.150;8.568;2023-05-16T05:33:33;14.40;99.90
14079;DHT22;7115;50.150;8.568;2023-05-16T05:36:00;14.40;99.90
14079;DHT22;7115;50.150;8.568;2023-05-16T05:38:29;14.40;99.90
14079;DHT22;7115;50.150;8.568;2023-05-16T05:40:58;14.40;99.90
14079;DHT22;7115;50.150;8.568;2023-05-16T05:43:25;14.40;99.90
14079;DHT22;7115;50.150;8.568;2023-05-16T05:45:51;14.40;99.90
14079;DHT22;7115;50.150;8.568;2023-05-16T05:48:19;14.50;99.90
14079;DHT22;7115;50.150;8.568;2023-05-16T05:50:46;14.50;99.90
14079;DHT22;7115;50.150;8.568;2023-05-16T05:53:13;14.50;99.90
14079;DHT22;7115;50.150;8.568;2023-05-16T05:55:40;14.50;99.90
14079;DHT22;7115;50.150;8.568;2023-05-16T05:58:09;14.40;99.90
14079;DHT22;7115;50.150;8.568;2023-05-16T06:00:36;14.40;99.90
14079;DHT22;7115;50.150;8.568;2023-05-16T06:03:03;14.40;99.90
14079;DHT22;7115;50.150;8.568;2023-05-16T06:05:30;14.40;99.90
14079;DHT22;7115;50.150;8.568;2023-05-16T06:07:57;14.40;99.90
14079;DHT22;7115;50.150;8.568;2023-05-16T06:10:24;14.30;99.90
14079;DHT22;7115;50.150;8.568;2023-05-16T06:12:51;14.30;99.90
14079;DHT22;7115;50.150;8.568;2023-05-16T06:15:20;14.30;99.90
14079;DHT22;7115;50.150;8.568;2023-05-16T06:17:47;14.30;99.90
14079;DHT22;7115;50.150;8.568;2023-05-16T06:20:14;14.30;99.90
14079;DHT22;7115;50.150;8.568;2023-05-16T06:22:41;14.20;99.90
14079;DHT22;7115;50.150;8.568;2023-05-16T06:25:08;14.20;99.90
14079;DHT22;7115;50.150;8.568;2023-05-16T06:27:35;14.20;99.90
14079;DHT22;7115;50.150;8.568;2023-05-16T06:30:03;14.20;99.90
14079;DHT22;7115;50.150;8.568;2023-05-16T06:32:31;14.10;99.90
14079;DHT22;7115;50.150;8.568;2023-05-16T06:34:58;14.10;99.90
14079;DHT22;7115;50.150;8.568;2023-05-16T06:37:25;14.00;99.90
14079;DHT22;7115;50.150;8.568;2023-05-16T06:39:52;14.00;99.90
14079;DHT22;7115;50.150;8.568;2023-05-16T06:42:19;13.90;99.90
14079;DHT22;7115;50.150;8.568;2023-05-16T06:44:46;13.90;99.90
14079;DHT22;7115;50.150;8.568;2023-05-16T06:47:13;13.90;99.90
14079;DHT22;7115;50.150;8.568;2023-05-16T06:49:42;13.90;99.90
14079;DHT22;7115;50.150;8.568;2023-05-16T06:52:09;13.90;99.90
14079;DHT22;7115;50.150;8.568;2023-05-16T06:54:35;13.90;99.90
14079;DHT22;7115;50.150;8.568;2023-05-16T06:57:03;13.90;99.90
14079;DHT22;7115;50.150;8.568;2023-05-16T06:59:31;13.80;99.90
14079;DHT22;7115;50.150;8.568;2023-05-16T07:01:58;13.80;99.90
14079;DHT22;7115;50.150;8.568;2023-05-16T07:04:25;13.80;99.90
14079;DHT22;7115;50.150;8.568;2023-05-16T07:06:53;13.80;99.90
14079;DHT22;7115;50.150;8.568;2023-05-16T07:09:20;13.80;99.90
14079;DHT22;7115;50.150;8.568;2023-05-16T07:11:47;13.80;99.90
14079;DHT22;7115;50.150;8.568;2023-05-16T07:14:14;13.80;99.90
14079;DHT22;7115;50.150;8.568;2023-05-16T07:16:41;13.80;99.90
14079;DHT22;7115;50.150;8.568;2023-05-16T07:19:08;13.80;99.90
14079;DHT22;7115;50.150;8.568;2023-05-16T07:21:35;13.70;99.90
14079;DHT22;7115;50.150;8.568;2023-05-16T07:24:05;13.70;99.90
14079;DHT22;7115;50.150;8.568;2023-05-16T07:26:32;13.60;99.90
14079;DHT22;7115;50.150;8.568;2023-05-16T07:28:59;13.60;99.90
14079;DHT22;7115;50.150;8.568;2023-05-16T07:31:28;13.50;99.90
14079;DHT22;7115;50.150;8.568;2023-05-16T07:33:55;13.50;99.90
14079;DHT22;7115;50.150;8.568;2023-05-16T07:36:22;13.50;99.90
14079;DHT22;7115;50.150;8.568;2023-05-16T07:38:49;13.50;99.90
14079;DHT22;7115;50.150;8.568;2023-05-16T07:41:18;13.40;99.90
14079;DHT22;7115;50.150;8.568;2023-05-16T07:43:45;13.40;99.90
14079;DHT22;7115;50.150;8.568;2023-05-16T07:46:12;13.30;99.90
14079;DHT22;7115;50.150;8.568;2023-05-16T07:48:40;13.30;99.90
14079;DHT22;7115;50.150;8.568;2023-05-16T07:51:07;13.20;99.90
14079;DHT22;7115;50.150;8.568;2023-05-16T07:53:34;13.10;99.90
14079;DHT22;7115;50.150;8.568;2023-05-16T07:56:04;13.00;99.90
14079;DHT22;7115;50.150;8.568;2023-05-16T07:58:36;13.00;99.90
14079;DHT22;7115;50.150;8.568;2023-05-16T08:01:04;12.90;99.90
14079;DHT22;7115;50.150;8.568;2023-05-16T08:03:31;12.90;99.90
14079;DHT22;7115;50.150;8.568;2023-05-16T08:05:58;12.90;99.90
14079;DHT22;7115;50.150;8.568;2023-05-16T08:08:26;12.80;99.90
14079;DHT22;7115;50.150;8.568;2023-05-16T08:10:53;12.70;99.90
14079;DHT22;7115;50.150;8.568;2023-05-16T08:13:20;12.60;99.90
14079;DHT22;7115;50.150;8.568;2023-05-16T08:15:48;12.60;99.90
14079;DHT22;7115;50.150;8.568;2023-05-16T08:18:15;12.40;99.90
14079;DHT22;7115;50.150;8.568;2023-05-16T08:20:45;12.40;99.90
14079;DHT22;7115;50.150;8.568;2023-05-16T08:23:12;12.40;99.90
14079;DHT22;7115;50.150;8.568;2023-05-16T08:25:40;12.40;99.90
14079;DHT22;7115;50.150;8.568;2023-05-16T08:28:06;12.50;99.90
14079;DHT22;7115;50.150;8.568;2023-05-16T08:30:33;12.50;99.90
14079;DHT22;7115;50.150;8.568;2023-05-16T08:33:02;12.50;99.90
14079;DHT22;7115;50.150;8.568;2023-05-16T08:35:31;12.60;99.90
14079;DHT22;7115;50.150;8.568;2023-05-16T08:37:58;12.70;99.90
14079;DHT22;7115;50.150;8.568;2023-05-16T08:40:26;12.70;99.90
14079;DHT22;7115;50.150;8.568;2023-05-16T08:42:55;12.70;99.90
14079;DHT22;7115;50.150;8.568;2023-05-16T08:45:22;12.80;99.90
14079;DHT22;7115;50.150;8.568;2023-05-16T08:47:54;12.80;99.90
14079;DHT22;7115;50.150;8.568;2023-05-16T08:50:25;12.90;99.90
14079;DHT22;7115;50.150;8.568;2023-05-16T08:52:55;13.00;99.90
14079;DHT22;7115;50.150;8.568;2023-05-16T08:55:23;13.10;99.90
14079;DHT22;7115;50.150;8.568;2023-05-16T08:57:53;13.20;99.90
14079;DHT22;7115;50.150;8.568;2023-05-16T09:00:21;13.30;99.90
14079;DHT22;7115;50.150;8.568;2023-05-16T09:02:48;13.50;99.90
14079;DHT22;7115;50.150;8.568;2023-05-16T09:05:16;13.50;99.90
14079;DHT22;7115;50.150;8.568;2023-05-16T09:07:45;13.60;99.90
14079;DHT22;7115;50.150;8.568;2023-05-16T09:10:12;13.50;99.90
14079;DHT22;7115;50.150;8.568;2023-05-16T09:12:40;13.70;99.90
14079;DHT22;7115;50.150;8.568;2023-05-16T09:15:08;13.80;99.90
14079;DHT22;7115;50.150;8.568;2023-05-16T09:17:38;14.00;99.90
14079;DHT22;7115;50.150;8.568;2023-05-16T09:20:10;14.10;99.90
14079;DHT22;7115;50.150;8.568;2023-05-16T09:22:38;14.20;99.90
14079;DHT22;7115;50.150;8.568;2023-05-16T09:25:07;14.20;99.90
14079;DHT22;7115;50.150;8.568;2023-05-16T09:27:54;14.20;99.90
14079;DHT22;7115;50.150;8.568;2023-05-16T09:30:22;14.30;99.90
14079;DHT22;7115;50.150;8.568;2023-05-16T09:32:53;14.30;99.90
14079;DHT22;7115;50.150;8.568;2023-05-16T09:35:20;14.30;99.90
14079;DHT22;7115;50.150;8.568;2023-05-16T09:38:13;14.40;99.90
14079;DHT22;7115;50.150;8.568;2023-05-16T09:40:43;14.30;99.90
14079;DHT22;7115;50.150;8.568;2023-05-16T09:43:14;14.20;99.90
14079;DHT22;7115;50.150;8.568;2023-05-16T09:45:45;14.20;99.90
14079;DHT22;7115;50.150;8.568;2023-05-16T09:48:14;14.30;99.90
14079;DHT22;7115;50.150;8.568;2023-05-16T09:50:46;14.30;99.90
14079;DHT22;7115;50.150;8.568;2023-05-16T09:53:15;14.30;99.90
14079;DHT22;7115;50.150;8.568;2023-05-16T09:55:43;14.20;99.90
14079;DHT22;7115;50.150;8.568;2023-05-16T09:58:10;14.00;99.90
14079;DHT22;7115;50.150;8.568;2023-05-16T10:00:38;13.90;99.90
14079;DHT22;7115;50.150;8.568;2023-05-16T10:03:07;13.70;99.90
14079;DHT22;7115;50.150;8.568;2023-05-16T10:05:35;13.60;99.90
14079;DHT22;7115;50.150;8.568;2023-05-16T10:08:02;13.70;99.90
14079;DHT22;7115;50.150;8.568;2023-05-16T10:10:33;13.50;99.90
14079;DHT22;7115;50.150;8.568;2023-05-16T10:13:04;13.40;99.90
14079;DHT22;7115;50.150;8.568;2023-05-16T10:15:34;13.40;99.90
14079;DHT22;7115;50.150;8.568;2023-05-16T10:18:02;13.40;99.90
14079;DHT22;7115;50.150;8.568;2023-05-16T10:20:33;13.30;99.90
14079;DHT22;7115;50.150;8.568;2023-05-16T10:23:01;13.30;99.90
14079;DHT22;7115;50.150;8.568;2023-05-16T10:25:32;13.30;99.90
14079;DHT22;7115;50.150;8.568;2023-05-16T10:28:03;13.40;99.90
14079;DHT22;7115;50.150;8.568;2023-05-16T10:30:32;13.40;99.90
14079;DHT22;7115;50.150;8.568;2023-05-16T10:33:00;13.50;99.90
14079;DHT22;7115;50.150;8.568;2023-05-16T10:35:28;13.60;99.90
14079;DHT22;7115;50.150;8.568;2023-05-16T10:37:57;13.70;99.90
14079;DHT22;7115;50.150;8.568;2023-05-16T10:40:24;13.80;99.90
14079;DHT22;7115;50.150;8.568;2023-05-16T10:42:56;13.80;99.90
14079;DHT22;7115;50.150;8.568;2023-05-16T10:45:24;14.00;99.90
14079;DHT22;7115;50.150;8.568;2023-05-16T10:47:53;14.20;99.90
14079;DHT22;7115;50.150;8.568;2023-05-16T10:50:31;14.30;99.90
14079;DHT22;7115;50.150;8.568;2023-05-16T10:53:14;14.30;99.90
14079;DHT22;7115;50.150;8.568;2023-05-16T10:55:49;14.40;99.90
14079;DHT22;7115;50.150;8.568;2023-05-16T10:58:24;14.40;99.90
14079;DHT22;7115;50.150;8.568;2023-05-16T11:01:25;14.50;99.90
14079;DHT22;7115;50.150;8.568;2023-05-16T11:04:07;14.50;99.90
14079;DHT22;7115;50.150;8.568;2023-05-16T11:06:44;14.60;99.90
14079;DHT22;7115;50.150;8.568;2023-05-16T11:09:25;14.70;99.90
14079;DHT22;7115;50.150;8.568;2023-05-16T11:11:58;14.70;99.90
14079;DHT22;7115;50.150;8.568;2023-05-16T11:14:27;14.70;99.90
14079;DHT22;7115;50.150;8.568;2023-05-16T11:17:02;14.60;99.80
14079;DHT22;7115;50.150;8.568;2023-05-16T11:19:31;14.60;99.60
14079;DHT22;7115;50.150;8.568;2023-05-16T11:22:22;14.60;99.60
14079;DHT22;7115;50.150;8.568;2023-05-16T11:24:52;14.70;99.60
14079;DHT22;7115;50.150;8.568;2023-05-16T11:27:20;14.80;99.50
14079;DHT22;7115;50.150;8.568;2023-05-16T11:29:48;14.80;99.30
14079;DHT22;7115;50.150;8.568;2023-05-16T11:32:20;14.80;99.20
14079;DHT22;7115;50.150;8.568;2023-05-16T11:34:50;14.80;99.10
14079;DHT22;7115;50.150;8.568;2023-05-16T11:37:18;15.00;99.10
14079;DHT22;7115;50.150;8.568;2023-05-16T11:39:46;15.10;99.00
14079;DHT22;7115;50.150;8.568;2023-05-16T11:42:13;15.20;99.20
14079;DHT22;7115;50.150;8.568;2023-05-16T11:44:40;15.30;98.70
14079;DHT22;7115;50.150;8.568;2023-05-16T11:47:07;15.50;98.70
14079;DHT22;7115;50.150;8.568;2023-05-16T11:49:36;15.70;98.50
14079;DHT22;7115;50.150;8.568;2023-05-16T11:52:03;15.90;98.30
14079;DHT22;7115;50.150;8.568;2023-05-16T11:54:30;16.20;98.20
14079;DHT22;7115;50.150;8.568;2023-05-16T11:56:58;16.40;97.90
14079;DHT22;7115;50.150;8.568;2023-05-16T11:59:25;16.80;97.60
14079;DHT22;7115;50.150;8.568;2023-05-16T12:01:52;17.00;97.10
14079;DHT22;7115;50.150;8.568;2023-05-16T12:04:19;17.30;96.60
14079;DHT22;7115;50.150;8.568;2023-05-16T12:06:59;17.50;96.00
14079;DHT22;7115;50.150;8.568;2023-05-16T12:09:27;17.70;95.40
14079;DHT22;7115;50.150;8.568;2023-05-16T12:11:54;17.80;95.20
14079;DHT22;7115;50.150;8.568;2023-05-16T12:14:21;17.80;94.80
14079;DHT22;7115;50.150;8.568;2023-05-16T12:16:51;17.90;94.60
14079;DHT22;7115;50.150;8.568;2023-05-16T12:19:19;18.10;94.50
14079;DHT22;7115;50.150;8.568;2023-05-16T12:21:47;18.40;94.30
14079;DHT22;7115;50.150;8.568;2023-05-16T12:24:18;18.70;93.90
14079;DHT22;7115;50.150;8.568;2023-05-16T12:26:46;19.00;93.70
14079;DHT22;7115;50.150;8.568;2023-05-16T12:29:13;19.20;93.40
14079;DHT22;7115;50.150;8.568;2023-05-16T12:31:40;19.40;93.10
14079;DHT22;7115;50.150;8.568;2023-05-16T12:34:17;19.60;92.80
14079;DHT22;7115;50.150;8.568;2023-05-16T12:36:44;19.80;92.20
14079;DHT22;7115;50.150;8.568;2023-05-16T12:39:17;19.80;91.90
14079;DHT22;7115;50.150;8.568;2023-05-16T12:41:45;19.90;92.00
14079;DHT22;7115;50.150;8.568;2023-05-16T12:44:13;20.00;91.40
14079;DHT22;7115;50.150;8.568;2023-05-16T12:46:43;20.10;91.00
14079;DHT22;7115;50.150;8.568;2023-05-16T12:49:12;20.30;90.70
14079;DHT22;7115;50.150;8.568;2023-05-16T12:51:39;20.20;90.20
14079;DHT22;7115;50.150;8.568;2023-05-16T12:54:08;20.10;90.00
14079;DHT22;7115;50.150;8.568;2023-05-16T12:56:38;20.00;90.00
14079;DHT22;7115;50.150;8.568;2023-05-16T12:59:05;19.80;89.70
14079;DHT22;7115;50.150;8.568;2023-05-16T13:01:32;19.60;89.20
14079;DHT22;7115;50.150;8.568;2023-05-16T13:04:01;19.40;88.80
14079;DHT22;7115;50.150;8.568;2023-05-16T13:06:28;19.20;88.40
14079;DHT22;7115;50.150;8.568;2023-05-16T13:09:10;19.10;88.20
14079;DHT22;7115;50.150;8.568;2023-05-16T13:11:39;19.10;88.40
14079;DHT22;7115;50.150;8.568;2023-05-16T13:14:06;19.20;88.30
14079;DHT22;7115;50.150;8.568;2023-05-16T13:16:33;19.30;88.20
14079;DHT22;7115;50.150;8.568;2023-05-16T13:19:00;19.50;87.90
14079;DHT22;7115;50.150;8.568;2023-05-16T13:21:28;19.50;87.60
14079;DHT22;7115;50.150;8.568;2023-05-16T13:23:57;19.50;87.10
14079;DHT22;7115;50.150;8.568;2023-05-16T13:26:24;19.50;86.90
14079;DHT22;7115;50.150;8.568;2023-05-16T13:28:54;19.50;86.40
14079;DHT22;7115;50.150;8.568;2023-05-16T13:31:21;19.50;85.60
14079;DHT22;7115;50.150;8.568;2023-05-16T13:33:48;19.40;85.30
14079;DHT22;7115;50.150;8.568;2023-05-16T13:36:16;19.30;85.30
14079;DHT22;7115;50.150;8.568;2023-05-16T13:38:43;19.40;85.20
14079;DHT22;7115;50.150;8.568;2023-05-16T13:41:10;19.30;84.90
14079;DHT22;7115;50.150;8.568;2023-05-16T13:43:37;19.40;84.90
14079;DHT22;7115;50.150;8.568;2023-05-16T13:46:05;19.50;85.00
14079;DHT22;7115;50.150;8.568;2023-05-16T13:48:32;19.70;85.10
14079;DHT22;7115;50.150;8.568;2023-05-16T13:50:59;19.80;84.80
14079;DHT22;7115;50.150;8.568;2023-05-16T13:53:26;19.80;84.20
14079;DHT22;7115;50.150;8.568;2023-05-16T13:55:53;19.70;83.70
14079;DHT22;7115;50.150;8.568;2023-05-16T13:58:20;19.50;83.20
14079;DHT22;7115;50.150;8.568;2023-05-16T14:00:47;19.20;82.80
14079;DHT22;7115;50.150;8.568;2023-05-16T14:03:16;18.90;82.50
14079;DHT22;7115;50.150;8.568;2023-05-16T14:05:44;18.80;82.60
14079;DHT22;7115;50.150;8.568;2023-05-16T14:08:11;18.80;82.80
14079;DHT22;7115;50.150;8.568;2023-05-16T14:10:37;18.90;82.70
14079;DHT22;7115;50.150;8.568;2023-05-16T14:13:04;18.90;82.80
14079;DHT22;7115;50.150;8.568;2023-05-16T14:15:32;19.00;82.70
14079;DHT22;7115;50.150;8.568;2023-05-16T14:17:59;19.10;82.20
14079;DHT22;7115;50.150;8.568;2023-05-16T14:20:27;19.10;81.60
14079;DHT22;7115;50.150;8.568;2023-05-16T14:22:54;19.10;81.40
14079;DHT22;7115;50.150;8.568;2023-05-16T14:25:22;19.10;81.30
14079;DHT22;7115;50.150;8.568;2023-05-16T14:27:49;19.00;81.10
14079;DHT22;7115;50.150;8.568;2023-05-16T14:30:16;18.90;80.90
14079;DHT22;7115;50.150;8.568;2023-05-16T14:32:43;18.80;80.70
14079;DHT22;7115;50.150;8.568;2023-05-16T14:35:10;18.70;80.70
14079;DHT22;7115;50.150;8.568;2023-05-16T14:37:39;18.70;80.70
14079;DHT22;7115;50.150;8.568;2023-05-16T14:40:07;18.70;81.00
14079;DHT22;7115;50.150;8.568;2023-05-16T14:42:34;18.80;81.10
14079;DHT22;7115;50.150;8.568;2023-05-16T14:45:01;18.80;80.80
14079;DHT22;7115;50.150;8.568;2023-05-16T14:47:29;18.80;80.60
14079;DHT22;7115;50.150;8.568;2023-05-16T14:49:57;18.80;80.40
14079;DHT22;7115;50.150;8.568;2023-05-16T14:52:24;18.70;80.50
14079;DHT22;7115;50.150;8.568;2023-05-16T14:54:52;18.70;80.70
14079;DHT22;7115;50.150;8.568;2023-05-16T14:57:19;18.70;80.90
14079;DHT22;7115;50.150;8.568;2023-05-16T14:59:46;18.70;81.00
14079;DHT22;7115;50.150;8.568;2023-05-16T15:02:14;18.50;80.70
14079;DHT22;7115;50.150;8.568;2023-05-16T15:04:41;18.40;80.30
14079;DHT22;7115;50.150;8.568;2023-05-16T15:07:08;18.20;80.30
14079;DHT22;7115;50.150;8.568;2023-05-16T15:09:35;18.10;80.70
14079;DHT22;7115;50.150;8.568;2023-05-16T15:12:04;18.10;81.00
14079;DHT22;7115;50.150;8.568;2023-05-16T15:14:31;18.10;81.10
14079;DHT22;7115;50.150;8.568;2023-05-16T15:16:58;18.20;81.10
14079;DHT22;7115;50.150;8.568;2023-05-16T15:19:25;18.20;80.90
14079;DHT22;7115;50.150;8.568;2023-05-16T15:21:52;18.20;80.70
14079;DHT22;7115;50.150;8.568;2023-05-16T15:24:19;18.10;80.30
14079;DHT22;7115;50.150;8.568;2023-05-16T15:26:47;18.20;80.20
14079;DHT22;7115;50.150;8.568;2023-05-16T15:29:16;18.20;80.00
14079;DHT22;7115;50.150;8.568;2023-05-16T15:31:45;18.20;79.50
14079;DHT22;7115;50.150;8.568;2023-05-16T15:34:12;18.20;79.10
14079;DHT22;7115;50.150;8.568;2023-05-16T15:36:39;18.20;78.90
14079;DHT22;7115;50.150;8.568;2023-05-16T15:39:06;18.10;78.60
14079;DHT22;7115;50.150;8.568;2023-05-16T15:41:33;18.00;78.20
14079;DHT22;7115;50.150;8.568;2023-05-16T15:44:21;17.90;78.10
14079;DHT22;7115;50.150;8.568;2023-05-16T15:46:48;17.90;78.40
14079;DHT22;7115;50.150;8.568;2023-05-16T15:49:15;18.00;78.60
14079;DHT22;7115;50.150;8.568;2023-05-16T15:51:42;18.10;79.00
14079;DHT22;7115;50.150;8.568;2023-05-16T15:54:09;18.10;79.10